createdAt,value
2023-04-26T00:02:03.477Z,96.70
2023-04-26T00:04:31.582Z,96.50
2023-04-26T00:06:59.307Z,96.40
2023-04-26T00:09:27.152Z,96.20
2023-04-26T00:11:55.021Z,96.00
2023-04-26T00:14:22.884Z,95.90
2023-04-26T00:16:51.368Z,96.00
2023-04-26T00:19:19.010Z,95.50
2023-04-26T00:21:46.604Z,95.50
2023-04-26T00:24:14.580Z,95.30
2023-04-26T00:26:42.234Z,95.30
2023-04-26T00:29:09.819Z,95.40
2023-04-26T00:31:37.920Z,95.60
2023-04-26T00:34:06.466Z,95.80
2023-04-26T00:36:34.747Z,95.60
2023-04-26T00:39:02.726Z,95.40
2023-04-26T00:41:30.390Z,95.40
2023-04-26T00:43:58.615Z,95.60
2023-04-26T00:46:26.601Z,95.60
2023-04-26T00:48:54.565Z,95.30
2023-04-26T00:51:22.381Z,94.80
2023-04-26T00:53:50.199Z,95.00
2023-04-26T00:56:17.789Z,94.70
2023-04-26T00:58:45.404Z,94.30
2023-04-26T01:01:14.351Z,94.60
2023-04-26T01:03:42.856Z,94.70
2023-04-26T01:06:10.805Z,94.50
2023-04-26T01:08:38.718Z,94.10
2023-04-26T01:11:06.352Z,93.60
2023-04-26T01:13:33.997Z,93.90
2023-04-26T01:16:01.895Z,93.10
2023-04-26T01:18:29.505Z,92.70
2023-04-26T01:20:57.104Z,92.20
2023-04-26T01:23:31.720Z,92.10
2023-04-26T01:26:00.571Z,92.30
2023-04-26T01:28:29.249Z,91.80
2023-04-26T01:30:57.711Z,91.60
2023-04-26T01:33:25.818Z,91.40
2023-04-26T01:35:53.519Z,91.50
2023-04-26T01:38:21.160Z,91.70
2023-04-26T01:40:48.861Z,91.70
2023-04-26T01:43:17.020Z,91.70
2023-04-26T01:45:44.647Z,91.50
2023-04-26T01:48:12.200Z,91.50
2023-04-26T01:50:40.347Z,91.20
2023-04-26T01:53:08.339Z,91.10
2023-04-26T01:55:36.278Z,90.90
2023-04-26T01:58:03.954Z,90.70
2023-04-26T02:00:33.393Z,90.70
2023-04-26T02:03:01.731Z,90.30
2023-04-26T02:05:29.691Z,90.10
2023-04-26T02:07:57.348Z,90.10
2023-04-26T02:10:25.035Z,89.70
2023-04-26T02:12:54.373Z,88.90
2023-04-26T02:15:22.620Z,88.50
2023-04-26T02:17:50.237Z,89.10
2023-04-26T02:20:19.528Z,89.00
2023-04-26T02:22:47.143Z,88.70
2023-04-26T02:25:15.879Z,89.00
2023-04-26T02:27:43.846Z,88.90
2023-04-26T02:30:11.524Z,89.50
2023-04-26T02:32:39.681Z,89.90
2023-04-26T02:35:07.768Z,89.30
2023-04-26T02:37:35.377Z,88.00
2023-04-26T02:40:03.413Z,87.10
2023-04-26T02:42:31.592Z,87.60
2023-04-26T02:44:59.255Z,88.10
2023-04-26T02:47:26.911Z,87.80
2023-04-26T02:49:54.769Z,86.60
2023-04-26T02:52:22.423Z,86.60
2023-04-26T02:54:50.077Z,85.80
2023-04-26T02:57:17.977Z,86.50
2023-04-26T02:59:45.568Z,86.20
2023-04-26T03:02:13.152Z,85.40
2023-04-26T03:04:40.953Z,85.90
2023-04-26T03:07:08.564Z,85.30
2023-04-26T03:09:36.193Z,85.20
2023-04-26T03:12:04.197Z,84.30
2023-04-26T03:14:32.294Z,84.30
2023-04-26T03:16:59.885Z,85.30
2023-04-26T03:19:27.779Z,84.70
2023-04-26T03:21:55.869Z,84.00
2023-04-26T03:24:23.511Z,83.80
2023-04-26T03:26:51.266Z,83.20
2023-04-26T03:29:18.849Z,83.20
2023-04-26T03:31:46.530Z,82.10
2023-04-26T03:34:14.533Z,82.50
2023-04-26T03:36:42.101Z,82.60
2023-04-26T03:39:09.748Z,82.90
2023-04-26T03:41:37.832Z,83.20
2023-04-26T03:44:05.393Z,82.80
2023-04-26T03:46:32.969Z,81.40
2023-04-26T03:49:00.701Z,81.20
2023-04-26T03:51:28.344Z,82.30
2023-04-26T03:53:56.152Z,82.90
2023-04-26T03:56:23.988Z,81.90
2023-04-26T03:58:51.731Z,81.80
2023-04-26T04:01:19.602Z,82.40
2023-04-26T04:03:47.752Z,83.40
2023-04-26T04:06:15.670Z,82.80
2023-04-26T04:08:43.322Z,83.10
2023-04-26T04:11:11.139Z,83.30
2023-04-26T04:13:39.496Z,83.30
2023-04-26T04:16:07.090Z,83.70
2023-04-26T04:18:35.168Z,82.80
2023-04-26T04:21:02.848Z,81.30
2023-04-26T04:23:30.519Z,82.20
2023-04-26T04:25:58.418Z,83.20
2023-04-26T04:28:31.928Z,83.20
2023-04-26T04:30:59.803Z,83.10
2023-04-26T04:33:27.472Z,83.10
2023-04-26T04:35:55.142Z,83.00
2023-04-26T04:38:23.100Z,82.20
2023-04-26T04:40:50.847Z,82.20
2023-04-26T04:43:18.425Z,81.70
2023-04-26T04:45:46.189Z,81.40
2023-04-26T04:48:14.113Z,81.50
2023-04-26T04:50:41.712Z,81.20
2023-04-26T04:53:09.521Z,81.50
2023-04-26T04:55:37.139Z,81.70
2023-04-26T04:58:04.726Z,81.20
2023-04-26T05:00:32.456Z,80.20
2023-04-26T05:03:00.223Z,79.80
2023-04-26T05:05:27.900Z,80.20
2023-04-26T05:07:55.759Z,80.00
2023-04-26T05:10:23.405Z,80.30
2023-04-26T05:12:51.037Z,79.20
2023-04-26T05:15:20.250Z,79.60
2023-04-26T05:17:48.005Z,79.80
2023-04-26T05:20:15.591Z,80.60
2023-04-26T05:22:43.380Z,79.50
2023-04-26T05:25:11.010Z,78.20
2023-04-26T05:27:38.639Z,77.70
2023-04-26T05:30:07.094Z,77.10
2023-04-26T05:32:34.837Z,77.60
2023-04-26T05:35:02.519Z,76.90
2023-04-26T05:37:30.465Z,75.40
2023-04-26T05:39:58.622Z,73.50
2023-04-26T05:42:26.304Z,75.10
2023-04-26T05:44:54.309Z,75.50
2023-04-26T05:47:21.868Z,74.30
2023-04-26T05:49:49.446Z,74.30
2023-04-26T05:52:17.150Z,73.70
2023-04-26T05:54:44.695Z,73.70
2023-04-26T05:57:12.337Z,72.80
2023-04-26T05:59:40.270Z,72.70
2023-04-26T06:02:08.398Z,73.20
2023-04-26T06:04:36.429Z,73.50
2023-04-26T06:07:04.344Z,73.20
2023-04-26T06:09:31.891Z,73.30
2023-04-26T06:11:59.495Z,72.30
2023-04-26T06:14:30.771Z,72.30
2023-04-26T06:16:58.740Z,72.30
2023-04-26T06:19:26.368Z,71.20
2023-04-26T06:21:54.335Z,70.30
2023-04-26T06:24:21.936Z,70.30
2023-04-26T06:29:30.732Z,71.10
2023-04-26T06:31:58.945Z,71.20
2023-04-26T06:34:27.059Z,72.20
2023-04-26T06:36:55.528Z,72.10
2023-04-26T06:39:24.034Z,72.50
2023-04-26T06:41:52.560Z,72.30
2023-04-26T06:44:20.346Z,72.30
2023-04-26T06:46:48.109Z,71.90
2023-04-26T06:49:15.971Z,71.90
2023-04-26T06:51:44.333Z,72.20
2023-04-26T06:54:12.372Z,72.00
2023-04-26T06:56:40.065Z,71.60
2023-04-26T06:59:07.766Z,71.70
2023-04-26T07:01:35.450Z,72.20
2023-04-26T07:04:03.509Z,71.60
2023-04-26T07:06:31.413Z,71.70
2023-04-26T07:08:59.551Z,71.40
2023-04-26T07:11:27.825Z,72.10
2023-04-26T07:13:55.911Z,70.80
2023-04-26T07:16:23.520Z,71.80
2023-04-26T07:18:51.184Z,70.80
2023-04-26T07:21:18.826Z,72.20
2023-04-26T07:23:46.390Z,72.30
2023-04-26T07:26:14.003Z,71.60
2023-04-26T07:28:42.518Z,71.50
2023-04-26T07:31:11.031Z,71.20
2023-04-26T07:33:39.994Z,70.70
2023-04-26T07:36:08.608Z,70.60
2023-04-26T07:38:36.196Z,71.30
2023-04-26T07:41:03.772Z,71.50
2023-04-26T07:43:32.185Z,71.30
2023-04-26T07:45:59.940Z,71.30
2023-04-26T07:48:27.688Z,71.10
2023-04-26T07:50:55.428Z,71.00
2023-04-26T07:53:23.203Z,70.30
2023-04-26T07:55:50.734Z,70.20
2023-04-26T07:58:18.637Z,70.50
2023-04-26T08:00:46.166Z,70.50
2023-04-26T08:03:13.975Z,70.40
2023-04-26T08:05:42.292Z,70.10
2023-04-26T08:08:10.094Z,70.10
2023-04-26T08:10:37.712Z,69.80
2023-04-26T08:13:05.660Z,69.70
2023-04-26T08:15:34.013Z,69.90
2023-04-26T08:18:01.666Z,70.00
2023-04-26T08:20:29.586Z,69.00
2023-04-26T08:22:57.348Z,68.60
2023-04-26T08:25:25.242Z,68.80
2023-04-26T08:27:53.067Z,69.50
2023-04-26T08:30:20.757Z,67.40
2023-04-26T08:32:48.413Z,68.40
2023-04-26T08:35:16.234Z,68.40
2023-04-26T08:37:43.823Z,69.10
2023-04-26T08:40:11.394Z,69.60
2023-04-26T08:42:39.108Z,69.70
2023-04-26T08:45:06.661Z,69.80
2023-04-26T08:47:34.317Z,70.10
2023-04-26T08:50:02.232Z,70.30
2023-04-26T08:52:29.838Z,69.20
2023-04-26T08:54:57.622Z,69.70
2023-04-26T08:57:25.488Z,68.90
2023-04-26T08:59:53.080Z,68.90
2023-04-26T09:02:20.756Z,69.10
2023-04-26T09:04:48.707Z,68.80
2023-04-26T09:07:16.370Z,68.70
2023-04-26T09:09:44.241Z,68.70
2023-04-26T09:12:11.940Z,68.40
2023-04-26T09:14:39.553Z,68.40
2023-04-26T09:17:07.833Z,68.20
2023-04-26T09:19:35.873Z,68.50
2023-04-26T09:22:03.512Z,69.10
2023-04-26T09:24:31.388Z,69.60
2023-04-26T09:26:59.198Z,69.60
2023-04-26T09:29:26.786Z,69.70
2023-04-26T09:31:54.425Z,70.10
2023-04-26T09:34:22.593Z,70.20
2023-04-26T09:36:50.676Z,70.70
2023-04-26T09:39:18.257Z,71.10
2023-04-26T09:41:49.070Z,70.70
2023-04-26T09:44:16.613Z,71.00
2023-04-26T09:46:44.262Z,71.40
2023-04-26T09:49:11.966Z,71.80
2023-04-26T09:51:39.549Z,71.30
2023-04-26T09:54:07.216Z,71.40
2023-04-26T09:56:34.991Z,71.90
2023-04-26T09:59:02.659Z,72.30
2023-04-26T10:01:30.769Z,72.10
2023-04-26T10:03:58.831Z,73.80
2023-04-26T10:06:26.521Z,73.60
2023-04-26T10:08:54.287Z,73.40
2023-04-26T10:11:22.548Z,73.70
2023-04-26T10:13:50.127Z,74.70
2023-04-26T10:16:17.857Z,76.10
2023-04-26T10:18:45.517Z,76.40
2023-04-26T10:21:13.119Z,77.70
2023-04-26T10:23:41.874Z,77.10
2023-04-26T10:26:09.645Z,77.80
2023-04-26T10:28:37.258Z,77.80
2023-04-26T10:31:05.141Z,76.20
2023-04-26T10:33:33.163Z,76.50
2023-04-26T10:36:00.819Z,79.10
2023-04-26T10:38:28.432Z,78.30
2023-04-26T10:40:56.319Z,80.20
2023-04-26T10:43:24.408Z,78.70
2023-04-26T10:45:53.379Z,78.80
2023-04-26T10:48:21.298Z,79.00
2023-04-26T10:50:48.891Z,79.70
2023-04-26T10:53:17.216Z,79.60
2023-04-26T10:55:45.081Z,80.30
2023-04-26T10:58:12.666Z,79.70
2023-04-26T11:00:40.283Z,80.10
2023-04-26T11:03:08.602Z,79.80
2023-04-26T11:05:36.408Z,80.10
2023-04-26T11:08:04.321Z,80.80
2023-04-26T11:10:32.341Z,81.90
2023-04-26T11:13:00.352Z,81.60
2023-04-26T11:15:29.884Z,81.30
2023-04-26T11:17:57.613Z,82.90
2023-04-26T11:20:25.875Z,82.90
2023-04-26T11:22:53.446Z,82.30
2023-04-26T11:25:21.270Z,82.70
2023-04-26T11:27:48.930Z,82.90
2023-04-26T11:30:16.511Z,82.90
2023-04-26T11:32:44.545Z,83.10
2023-04-26T11:35:12.214Z,82.70
2023-04-26T11:37:39.879Z,83.00
2023-04-26T11:40:07.736Z,83.80
2023-04-26T11:42:35.933Z,84.10
2023-04-26T11:45:03.525Z,84.80
2023-04-26T11:47:31.301Z,85.30
2023-04-26T11:49:58.872Z,87.70
2023-04-26T11:52:26.471Z,86.70
2023-04-26T11:54:54.290Z,87.00
2023-04-26T11:57:21.884Z,86.10
2023-04-26T11:59:49.587Z,85.90
2023-04-26T12:02:17.377Z,85.50
2023-04-26T12:04:46.730Z,85.70
2023-04-26T12:07:14.462Z,86.20
2023-04-26T12:09:42.026Z,86.70
2023-04-26T12:12:09.594Z,86.20
2023-04-26T12:14:37.212Z,86.40
2023-04-26T12:17:04.972Z,86.30
2023-04-26T12:19:32.598Z,87.30
2023-04-26T12:22:01.370Z,88.20
2023-04-26T12:24:29.293Z,88.10
2023-04-26T12:26:56.970Z,89.30
2023-04-26T12:29:24.599Z,89.50
2023-04-26T12:31:52.772Z,89.90
2023-04-26T12:34:20.341Z,90.10
2023-04-26T12:36:47.961Z,90.10
2023-04-26T12:39:15.635Z,90.20
2023-04-26T12:41:43.221Z,90.10
2023-04-26T12:44:11.053Z,90.30
2023-04-26T12:46:38.970Z,90.60
2023-04-26T12:49:06.604Z,90.70
2023-04-26T12:51:34.480Z,91.00
2023-04-26T12:54:02.281Z,91.50
2023-04-26T12:56:31.453Z,91.90
2023-04-26T12:58:59.043Z,92.20
2023-04-26T13:01:26.786Z,92.20
2023-04-26T13:03:54.572Z,92.40
2023-04-26T13:06:22.203Z,92.80
2023-04-26T13:08:49.959Z,92.90
2023-04-26T13:11:17.613Z,93.20
2023-04-26T13:13:45.364Z,93.40
2023-04-26T13:16:13.490Z,93.70
2023-04-26T13:18:41.230Z,93.60
2023-04-26T13:21:08.795Z,93.60
2023-04-26T13:23:36.468Z,93.50
2023-04-26T13:26:04.041Z,93.30
2023-04-26T13:28:31.837Z,93.20
2023-04-26T13:30:59.820Z,93.30
2023-04-26T13:33:27.630Z,93.20
2023-04-26T13:35:55.260Z,93.60
2023-04-26T13:38:23.259Z,93.80
2023-04-26T13:40:50.829Z,93.90
2023-04-26T13:43:18.405Z,94.00
2023-04-26T13:45:46.217Z,94.00
2023-04-26T13:48:14.025Z,94.10
2023-04-26T13:50:41.770Z,94.20
2023-04-26T13:53:09.416Z,94.40
2023-04-26T13:55:37.022Z,94.70
2023-04-26T13:58:04.779Z,95.10
2023-04-26T14:00:33.069Z,95.40
2023-04-26T14:03:02.720Z,95.50
2023-04-26T14:05:30.509Z,95.90
2023-04-26T14:07:58.315Z,96.30
2023-04-26T14:10:25.905Z,96.50
2023-04-26T14:12:54.111Z,96.50
2023-04-26T14:15:21.871Z,96.70
2023-04-26T14:17:49.589Z,96.60
2023-04-26T14:20:17.205Z,97.00
2023-04-26T14:22:45.133Z,97.70
2023-04-26T14:25:12.623Z,98.00
2023-04-26T14:27:40.217Z,98.30
2023-04-26T14:30:08.175Z,98.70
2023-04-26T14:32:35.814Z,98.70
2023-04-26T14:35:03.514Z,98.60
2023-04-26T14:37:31.901Z,98.50
2023-04-26T14:39:59.490Z,98.60
2023-04-26T14:42:27.097Z,98.50
2023-04-26T14:44:54.825Z,98.70
2023-04-26T14:47:22.706Z,98.70
2023-04-26T14:49:50.354Z,98.90
2023-04-26T14:52:18.111Z,99.20
2023-04-26T14:54:45.845Z,99.20
2023-04-26T14:57:13.546Z,99.30
2023-04-26T14:59:41.440Z,99.50
2023-04-26T15:02:09.096Z,99.60
2023-04-26T15:04:37.158Z,99.90
2023-04-26T15:07:05.254Z,99.70
2023-04-26T15:09:32.808Z,99.90
2023-04-26T15:12:00.519Z,99.90
2023-04-26T15:14:28.384Z,99.90
2023-04-26T15:16:55.952Z,99.90
2023-04-26T15:19:23.748Z,99.90
2023-04-26T15:21:51.565Z,99.90
2023-04-26T15:24:19.231Z,99.90
2023-04-26T15:26:46.873Z,99.90
2023-04-26T15:29:14.706Z,99.70
2023-04-26T15:31:42.386Z,99.90
2023-04-26T15:34:10.007Z,99.70
2023-04-26T15:36:37.809Z,99.90
2023-04-26T15:39:05.416Z,99.90
2023-04-26T15:41:33.008Z,99.90
2023-04-26T15:44:00.629Z,99.90
2023-04-26T15:46:28.215Z,99.90
2023-04-26T15:48:55.837Z,99.90
2023-04-26T15:51:23.657Z,99.90
2023-04-26T15:53:51.193Z,99.90
2023-04-26T15:56:18.846Z,99.90
2023-04-26T15:58:46.811Z,99.90
2023-04-26T16:01:15.578Z,99.90
2023-04-26T16:03:45.721Z,99.90
2023-04-26T16:06:15.239Z,99.90
2023-04-26T16:08:42.827Z,99.90
2023-04-26T16:11:10.360Z,99.90
2023-04-26T16:13:37.997Z,99.90
2023-04-26T16:16:05.576Z,99.90
2023-04-26T16:18:33.143Z,99.90
2023-04-26T16:21:01.633Z,99.90
2023-04-26T16:23:29.214Z,99.90
2023-04-26T16:25:56.784Z,99.90
2023-04-26T16:28:24.685Z,99.90
2023-04-26T16:30:52.250Z,99.90
2023-04-26T16:33:22.535Z,99.90
2023-04-26T16:35:51.041Z,99.90
2023-04-26T16:38:18.577Z,99.90
2023-04-26T16:40:46.145Z,99.90
2023-04-26T16:43:14.158Z,99.90
2023-04-26T16:45:41.773Z,99.90
2023-04-26T16:48:09.427Z,99.90
2023-04-26T16:50:37.108Z,99.90
2023-04-26T16:53:04.666Z,99.90
2023-04-26T16:55:32.218Z,99.90
2023-04-26T16:58:00.029Z,99.90
2023-04-26T17:00:27.739Z,99.90
2023-04-26T17:02:55.500Z,99.90
2023-04-26T17:05:23.748Z,99.90
2023-04-26T17:07:51.273Z,99.90
2023-04-26T17:10:18.818Z,99.90
2023-04-26T17:12:46.832Z,99.90
2023-04-26T17:15:14.426Z,99.90
2023-04-26T17:17:42.020Z,99.90
2023-04-26T17:20:11.224Z,99.90
2023-04-26T17:22:39.092Z,99.90
2023-04-26T17:25:06.641Z,99.90
2023-04-26T17:27:34.254Z,99.90
2023-04-26T17:30:01.797Z,99.90
2023-04-26T17:32:29.417Z,99.90
2023-04-26T17:34:57.241Z,99.90
2023-04-26T17:37:24.825Z,99.90
2023-04-26T17:39:52.382Z,99.90
2023-04-26T17:42:20.174Z,99.90
2023-04-26T17:44:47.794Z,99.90
2023-04-26T17:47:15.343Z,99.90
2023-04-26T17:49:43.121Z,99.90
2023-04-26T17:52:10.727Z,99.90
2023-04-26T17:54:38.256Z,99.90
2023-04-26T17:57:06.128Z,99.90
2023-04-26T17:59:33.682Z,99.90
2023-04-26T18:02:01.218Z,99.90
2023-04-26T18:04:37.676Z,99.90
2023-04-26T18:07:07.911Z,99.90
2023-04-26T18:09:41.678Z,99.90
2023-04-26T18:12:12.962Z,99.90
2023-04-26T18:14:41.588Z,99.90
2023-04-26T18:17:09.691Z,99.90
2023-04-26T18:19:38.217Z,99.90
2023-04-26T18:22:05.827Z,99.90
2023-04-26T18:24:34.467Z,99.90
2023-04-26T18:27:02.046Z,99.90
2023-04-26T18:29:30.128Z,99.90
2023-04-26T18:31:58.085Z,99.90
2023-04-26T18:34:25.663Z,99.90
2023-04-26T18:36:53.269Z,99.90
2023-04-26T18:39:21.000Z,99.90
2023-04-26T18:41:48.549Z,99.90
2023-04-26T18:44:16.130Z,99.90
2023-04-26T18:46:43.936Z,99.90
2023-04-26T18:49:11.596Z,99.90
2023-04-26T18:51:39.173Z,99.90
2023-04-26T18:54:06.786Z,99.90
2023-04-26T18:56:34.385Z,99.90
2023-04-26T18:59:01.992Z,99.90
2023-04-26T19:01:29.791Z,99.90
2023-04-26T19:03:57.622Z,99.90
2023-04-26T19:06:25.333Z,99.90
2023-04-26T19:08:53.000Z,99.90
2023-04-26T19:11:20.639Z,99.90
2023-04-26T19:13:48.328Z,99.90
2023-04-26T19:16:16.278Z,99.90
2023-04-26T19:18:43.880Z,99.90
2023-04-26T19:21:11.552Z,99.90
2023-04-26T19:23:39.482Z,99.90
2023-04-26T19:26:07.052Z,99.90
2023-04-26T19:28:34.656Z,99.90
2023-04-26T19:31:02.376Z,99.90
2023-04-26T19:33:30.155Z,99.90
2023-04-26T19:35:57.902Z,99.90
2023-04-26T19:38:25.614Z,99.90
2023-04-26T19:40:53.363Z,99.90
2023-04-26T19:43:21.187Z,99.90
2023-04-26T19:45:48.787Z,99.90
2023-04-26T19:48:16.331Z,99.90
2023-04-26T19:50:44.702Z,99.90
2023-04-26T19:53:12.511Z,99.90
2023-04-26T19:55:40.064Z,99.60
2023-04-26T19:58:07.705Z,99.70
2023-04-26T20:00:35.401Z,99.60
2023-04-26T20:03:03.301Z,99.40
2023-04-26T20:05:31.455Z,99.50
2023-04-26T20:07:59.284Z,98.60
2023-04-26T20:10:26.883Z,98.80
2023-04-26T20:12:54.654Z,98.30
2023-04-26T20:15:22.276Z,98.20
2023-04-26T20:17:50.770Z,98.00
2023-04-26T20:20:19.037Z,98.10
2023-04-26T20:22:52.128Z,98.00
2023-04-26T20:25:20.021Z,97.70
2023-04-26T20:27:47.728Z,97.30
2023-04-26T20:30:15.417Z,97.30
2023-04-26T20:32:43.264Z,97.50
2023-04-26T20:35:11.111Z,97.30
2023-04-26T20:37:39.420Z,97.80
2023-04-26T20:40:08.194Z,98.20
2023-04-26T20:42:41.276Z,98.40
2023-04-26T20:45:08.942Z,98.20
2023-04-26T20:47:36.534Z,97.90
2023-04-26T20:50:04.117Z,97.70
2023-04-26T20:52:32.147Z,98.20
2023-04-26T20:54:59.739Z,98.30
2023-04-26T20:57:27.516Z,98.00
2023-04-26T20:59:55.173Z,98.20
2023-04-26T21:02:22.820Z,98.50
2023-04-26T21:04:50.705Z,98.40
2023-04-26T21:07:18.428Z,98.40
2023-04-26T21:09:46.219Z,98.20
2023-04-26T21:12:14.111Z,98.50
2023-04-26T21:14:41.727Z,98.50
2023-04-26T21:17:09.270Z,98.70
2023-04-26T21:19:36.993Z,98.70
2023-04-26T21:22:04.768Z,99.20
2023-04-26T21:24:32.359Z,99.20
2023-04-26T21:26:59.897Z,99.00
2023-04-26T21:29:27.619Z,98.80
2023-04-26T21:31:55.224Z,99.00
2023-04-26T21:34:23.058Z,98.90
2023-04-26T21:36:50.767Z,98.90
2023-04-26T21:39:18.313Z,99.00
2023-04-26T21:41:46.049Z,99.10
2023-04-26T21:44:13.751Z,99.80
2023-04-26T21:46:41.370Z,99.90
2023-04-26T21:49:09.295Z,99.90
2023-04-26T21:51:36.982Z,99.90
2023-04-26T21:54:04.536Z,99.90
2023-04-26T21:56:32.106Z,99.90
2023-04-26T21:58:59.771Z,99.50
2023-04-26T22:01:27.439Z,99.40
2023-04-26T22:03:55.418Z,99.40
2023-04-26T22:06:24.889Z,99.60
2023-04-26T22:08:52.468Z,99.50
2023-04-26T22:11:20.125Z,99.80
2023-04-26T22:13:47.724Z,99.80
2023-04-26T22:16:15.562Z,99.90
2023-04-26T22:18:43.650Z,99.80
2023-04-26T22:21:11.309Z,99.90
2023-04-26T22:23:38.888Z,99.90
2023-04-26T22:26:06.596Z,99.90
2023-04-26T22:28:34.206Z,99.90
2023-04-26T22:31:01.780Z,99.90
2023-04-26T22:33:29.493Z,99.90
2023-04-26T22:35:57.162Z,99.70
2023-04-26T22:38:24.799Z,99.80
2023-04-26T22:40:52.649Z,99.90
2023-04-26T22:43:20.408Z,99.70
2023-04-26T22:45:48.026Z,99.90
2023-04-26T22:48:15.842Z,99.90
2023-04-26T22:50:43.551Z,99.90
2023-04-26T22:53:11.120Z,99.90
2023-04-26T22:55:38.970Z,99.90
2023-04-26T22:58:06.580Z,99.90
2023-04-26T23:00:34.162Z,99.90
2023-04-26T23:03:02.435Z,99.90
2023-04-26T23:05:30.183Z,99.90
2023-04-26T23:07:57.700Z,99.90
2023-04-26T23:10:25.582Z,99.90
2023-04-26T23:12:53.290Z,99.90
2023-04-26T23:15:20.889Z,99.90
2023-04-26T23:17:48.806Z,99.90
2023-04-26T23:20:16.491Z,99.90
2023-04-26T23:22:44.096Z,99.90
2023-04-26T23:25:11.763Z,99.90
2023-04-26T23:27:39.707Z,99.90
2023-04-26T23:30:07.944Z,99.90
2023-04-26T23:32:36.623Z,99.90
2023-04-26T23:35:04.796Z,99.90
2023-04-26T23:37:33.579Z,99.90
2023-04-26T23:40:01.415Z,99.90
2023-04-26T23:42:29.490Z,99.90
2023-04-26T23:44:57.397Z,99.90
2023-04-26T23:47:26.107Z,99.90
2023-04-26T23:49:55.418Z,99.90
2023-04-26T23:52:22.971Z,99.90
2023-04-26T23:54:50.671Z,99.80
2023-04-26T23:57:18.941Z,99.80
2023-04-26T23:59:46.871Z,99.30
